PRIVATE WETTERSTATION BILLIGHEIM-ALLFELD                       ZURCK
Wetterdaten: Freitag, 29.12.2017
Datum Zeit Temp. A. Temp. A. min Temp. A. max Feuchte A. Luftdruck Regen Wind Richtung Richtung Sonnenschein ET Solar Taupunkt Windchill Windben Empfang
29.12.2017 00:00 -0,3 C -0,4 C -0,3 C 89 % 1009,0 hPa 0,0 l/m 4,8 km/h (1 Bft) S-SW 202 0 min 0,000 mm 0 W/m -1,9 C -0,3 C 14,5 km/h (3 Bft) 100 %
29.12.2017 00:10 -0,3 C -0,3 C -0,3 C 89 % 1009,1 hPa 0,0 l/m 8,0 km/h (2 Bft) S-SW 202 0 min 0,000 mm 0 W/m -1,9 C -2,0 C 19,3 km/h (3 Bft) 100 %
29.12.2017 00:20 -0,3 C -0,3 C -0,3 C 89 % 1009,0 hPa 0,0 l/m 9,7 km/h (2 Bft) S-SW 202 0 min 0,000 mm 0 W/m -1,9 C -3,5 C 17,7 km/h (3 Bft) 100 %
29.12.2017 00:30 -0,4 C -0,4 C -0,3 C 89 % 1009,1 hPa 0,0 l/m 4,8 km/h (1 Bft) SW 225 0 min 0,000 mm 0 W/m -2,0 C -0,4 C 16,1 km/h (3 Bft) 100 %
29.12.2017 00:40 -0,4 C -0,5 C -0,4 C 89 % 1009,2 hPa 0,0 l/m 3,2 km/h (1 Bft) SW 225 0 min 0,000 mm 0 W/m -2,0 C -0,4 C 11,3 km/h (2 Bft) 100 %
29.12.2017 00:50 -0,6 C -0,6 C -0,5 C 89 % 1009,2 hPa 0,0 l/m 4,8 km/h (1 Bft) SW 225 0 min 0,000 mm 0 W/m -2,2 C -0,6 C 11,3 km/h (2 Bft) 100 %
29.12.2017 01:00 -0,7 C -0,7 C -0,6 C 89 % 1009,4 hPa 0,0 l/m 3,2 km/h (1 Bft) SW 225 0 min 0,000 mm 0 W/m -2,3 C -0,7 C 11,3 km/h (2 Bft) 100 %
29.12.2017 01:10 -0,8 C -0,8 C -0,7 C 90 % 1009,6 hPa 0,0 l/m 3,2 km/h (1 Bft) SW 225 0 min 0,000 mm 0 W/m -2,2 C -0,8 C 11,3 km/h (2 Bft) 99 %
29.12.2017 01:20 -0,8 C -0,8 C -0,8 C 90 % 1009,7 hPa 0,0 l/m 3,2 km/h (1 Bft) SW 225 0 min 0,000 mm 0 W/m -2,2 C -0,8 C 9,7 km/h (2 Bft) 100 %
29.12.2017 01:30 -0,9 C -0,9 C -0,8 C 90 % 1009,7 hPa 0,0 l/m 6,4 km/h (2 Bft) SW 225 0 min 0,000 mm 0 W/m -2,3 C -0,9 C 14,5 km/h (3 Bft) 100 %
29.12.2017 01:40 -0,9 C -0,9 C -0,9 C 90 % 1009,8 hPa 0,0 l/m 4,8 km/h (1 Bft) S-SW 202 0 min 0,000 mm 0 W/m -2,3 C -0,9 C 11,3 km/h (2 Bft) 100 %
29.12.2017 01:50 -1,0 C -1,0 C -0,9 C 90 % 1010,0 hPa 0,0 l/m 0,0 km/h (0 Bft) S 180 0 min 0,000 mm 0 W/m -2,4 C -1,0 C 9,7 km/h (2 Bft) 100 %
29.12.2017 02:00 -1,1 C -1,1 C -1,0 C 91 % 1010,1 hPa 0,0 l/m 0,0 km/h (0 Bft) S 180 0 min 0,000 mm 0 W/m -2,4 C -1,1 C 8,0 km/h (2 Bft) 90 %
29.12.2017 02:10 -1,1 C -1,1 C -1,1 C 91 % 1010,2 hPa 0,0 l/m 4,8 km/h (1 Bft) S 180 0 min 0,000 mm 0 W/m -2,4 C -1,1 C 9,7 km/h (2 Bft) 100 %
29.12.2017 02:20 -1,2 C -1,2 C -1,1 C 90 % 1010,4 hPa 0,0 l/m 3,2 km/h (1 Bft) S-SW 202 0 min 0,000 mm 0 W/m -2,6 C -1,2 C 9,7 km/h (2 Bft) 100 %
29.12.2017 02:30 -1,2 C -1,2 C -1,1 C 91 % 1010,4 hPa 0,0 l/m 3,2 km/h (1 Bft) S 180 0 min 0,000 mm 0 W/m -2,5 C -1,2 C 14,5 km/h (3 Bft) 100 %
29.12.2017 02:40 -1,2 C -1,2 C -1,2 C 91 % 1010,5 hPa 0,0 l/m 4,8 km/h (1 Bft) S 180 0 min 0,000 mm 0 W/m -2,5 C -1,2 C 16,1 km/h (3 Bft) 100 %
29.12.2017 02:50 -1,2 C -1,2 C -1,2 C 91 % 1010,6 hPa 0,0 l/m 3,2 km/h (1 Bft) S 180 0 min 0,000 mm 0 W/m -2,5 C -1,2 C 9,7 km/h (2 Bft) 100 %
29.12.2017 03:00 -1,2 C -1,2 C -1,2 C 91 % 1010,7 hPa 0,0 l/m 4,8 km/h (1 Bft) S 180 0 min 0,000 mm 0 W/m -2,5 C -1,2 C 16,1 km/h (3 Bft) 100 %
29.12.2017 03:10 -1,2 C -1,2 C -1,2 C 91 % 1010,7 hPa 0,0 l/m 6,4 km/h (2 Bft) S-SW 202 0 min 0,000 mm 0 W/m -2,5 C -1,2 C 16,1 km/h (3 Bft) 90 %
29.12.2017 03:20 -1,2 C -1,2 C -1,2 C 91 % 1010,7 hPa 0,0 l/m 3,2 km/h (1 Bft) S 180 0 min 0,000 mm 0 W/m -2,5 C -1,2 C 14,5 km/h (3 Bft) 99 %
29.12.2017 03:30 -1,2 C -1,2 C -1,2 C 91 % 1010,7 hPa 0,0 l/m 4,8 km/h (1 Bft) S-SW 202 0 min 0,000 mm 0 W/m -2,5 C -1,2 C 14,5 km/h (3 Bft) 100 %
29.12.2017 03:40 -1,2 C -1,3 C -1,2 C 91 % 1010,8 hPa 0,0 l/m 4,8 km/h (1 Bft) S-SW 202 0 min 0,000 mm 0 W/m -2,5 C -1,2 C 14,5 km/h (3 Bft) 100 %
29.12.2017 03:50 -1,2 C -1,3 C -1,2 C 91 % 1011,0 hPa 0,0 l/m 6,4 km/h (2 Bft) S-SW 202 0 min 0,000 mm 0 W/m -2,5 C -1,2 C 9,7 km/h (2 Bft) 99 %
29.12.2017 04:00 -1,1 C -1,3 C -1,1 C 91 % 1011,0 hPa 0,0 l/m 9,7 km/h (2 Bft) S-SW 202 0 min 0,000 mm 0 W/m -2,4 C -4,4 C 17,7 km/h (3 Bft) 100 %
29.12.2017 04:10 -0,8 C -1,1 C -0,8 C 91 % 1011,1 hPa 0,0 l/m 6,4 km/h (2 Bft) S-SW 202 0 min 0,000 mm 0 W/m -2,1 C -0,8 C 16,1 km/h (3 Bft) 99 %
29.12.2017 04:20 -0,7 C -0,8 C -0,7 C 91 % 1011,1 hPa 0,0 l/m 9,7 km/h (2 Bft) S-SW 202 0 min 0,000 mm 0 W/m -2,0 C -4,0 C 17,7 km/h (3 Bft) 100 %
29.12.2017 04:30 -0,7 C -0,7 C -0,7 C 91 % 1011,0 hPa 0,0 l/m 8,0 km/h (2 Bft) S-SW 202 0 min 0,000 mm 0 W/m -2,0 C -2,4 C 20,9 km/h (4 Bft) 90 %
29.12.2017 04:40 -0,6 C -0,7 C -0,6 C 91 % 1011,0 hPa 0,0 l/m 8,0 km/h (2 Bft) SW 225 0 min 0,000 mm 0 W/m -1,9 C -2,3 C 17,7 km/h (3 Bft) 100 %
29.12.2017 04:50 -0,7 C -0,7 C -0,6 C 91 % 1011,0 hPa 0,0 l/m 6,4 km/h (2 Bft) SW 225 0 min 0,000 mm 0 W/m -2,0 C -0,7 C 11,3 km/h (2 Bft) 100 %
29.12.2017 05:00 -0,7 C -0,7 C -0,7 C 91 % 1011,0 hPa 0,0 l/m 6,4 km/h (2 Bft) S-SW 202 0 min 0,000 mm 0 W/m -2,0 C -0,7 C 14,5 km/h (3 Bft) 100 %
29.12.2017 05:10 -0,7 C -0,7 C -0,7 C 91 % 1011,1 hPa 0,0 l/m 6,4 km/h (2 Bft) S-SW 202 0 min 0,000 mm 0 W/m -2,0 C -0,7 C 14,5 km/h (3 Bft) 100 %
29.12.2017 05:20 -0,6 C -0,7 C -0,6 C 91 % 1011,1 hPa 0,0 l/m 8,0 km/h (2 Bft) S-SW 202 0 min 0,000 mm 0 W/m -1,9 C -2,3 C 14,5 km/h (3 Bft) 100 %
29.12.2017 05:30 -0,6 C -0,6 C -0,6 C 91 % 1011,0 hPa 0,0 l/m 4,8 km/h (1 Bft) SW 225 0 min 0,000 mm 0 W/m -1,9 C -0,6 C 14,5 km/h (3 Bft) 100 %
29.12.2017 05:40 -0,7 C -0,7 C -0,6 C 91 % 1011,0 hPa 0,0 l/m 6,4 km/h (2 Bft) SW 225 0 min 0,000 mm 0 W/m -2,0 C -0,7 C 11,3 km/h (2 Bft) 100 %
29.12.2017 05:50 -0,6 C -0,7 C -0,6 C 91 % 1011,1 hPa 0,0 l/m 3,2 km/h (1 Bft) S-SW 202 0 min 0,000 mm 0 W/m -1,9 C -0,6 C 11,3 km/h (2 Bft) 89 %
29.12.2017 06:00 -0,6 C -0,6 C -0,6 C 91 % 1011,0 hPa 0,0 l/m 4,8 km/h (1 Bft) S-SW 202 0 min 0,000 mm 0 W/m -1,9 C -0,6 C 9,7 km/h (2 Bft) 100 %
29.12.2017 06:10 -0,6 C -0,6 C -0,6 C 91 % 1011,2 hPa 0,0 l/m 4,8 km/h (1 Bft) S-SW 202 0 min 0,000 mm 0 W/m -1,9 C -0,6 C 11,3 km/h (2 Bft) 100 %
29.12.2017 06:20 -0,5 C -0,6 C -0,5 C 91 % 1011,3 hPa 0,0 l/m 3,2 km/h (1 Bft) S 180 0 min 0,000 mm 0 W/m -1,8 C -0,5 C 11,3 km/h (2 Bft) 100 %
29.12.2017 06:30 -0,4 C -0,5 C -0,4 C 91 % 1011,2 hPa 0,0 l/m 4,8 km/h (1 Bft) S 180 0 min 0,000 mm 0 W/m -1,7 C -0,4 C 9,7 km/h (2 Bft) 100 %
29.12.2017 06:40 -0,4 C -0,4 C -0,4 C 91 % 1011,3 hPa 0,0 l/m 3,2 km/h (1 Bft) S-SW 202 0 min 0,000 mm 0 W/m -1,7 C -0,4 C 9,7 km/h (2 Bft) 100 %
29.12.2017 06:50 -0,4 C -0,4 C -0,4 C 91 % 1011,4 hPa 0,0 l/m 4,8 km/h (1 Bft) S 180 0 min 0,000 mm 0 W/m -1,7 C -0,4 C 9,7 km/h (2 Bft) 100 %
29.12.2017 07:00 -0,4 C -0,4 C -0,4 C 91 % 1011,5 hPa 0,0 l/m 4,8 km/h (1 Bft) S 180 0 min 0,000 mm 0 W/m -1,7 C -0,4 C 9,7 km/h (2 Bft) 100 %
29.12.2017 07:10 -0,4 C -0,4 C -0,4 C 90 % 1011,4 hPa 0,0 l/m 4,8 km/h (1 Bft) S 180 0 min 0,000 mm 0 W/m -1,8 C -0,4 C 11,3 km/h (2 Bft) 100 %
29.12.2017 07:20 -0,4 C -0,4 C -0,4 C 91 % 1011,4 hPa 0,0 l/m 3,2 km/h (1 Bft) S 180 0 min 0,000 mm 0 W/m -1,7 C -0,4 C 14,5 km/h (3 Bft) 100 %
29.12.2017 07:30 -0,5 C -0,5 C -0,4 C 90 % 1011,5 hPa 0,0 l/m 6,4 km/h (2 Bft) S-SW 202 0 min 0,000 mm 0 W/m -1,9 C -0,5 C 16,1 km/h (3 Bft) 100 %
29.12.2017 07:40 -0,6 C -0,6 C -0,5 C 90 % 1011,4 hPa 0,0 l/m 8,0 km/h (2 Bft) S-SW 202 0 min 0,000 mm 0 W/m -2,0 C -2,3 C 17,7 km/h (3 Bft) 100 %
29.12.2017 07:50 -0,6 C -0,6 C -0,5 C 90 % 1011,6 hPa 0,0 l/m 6,4 km/h (2 Bft) S-SW 202 0 min 0,000 mm 0 W/m -2,0 C -0,6 C 14,5 km/h (3 Bft) 100 %
29.12.2017 08:00 -0,6 C -0,6 C -0,6 C 89 % 1011,5 hPa 0,0 l/m 8,0 km/h (2 Bft) S-SW 202 0 min 0,000 mm 0 W/m -2,2 C -2,3 C 17,7 km/h (3 Bft) 100 %
29.12.2017 08:10 -0,7 C -0,7 C -0,6 C 89 % 1011,6 hPa 0,0 l/m 6,4 km/h (2 Bft) S-SW 202 0 min 0,000 mm 0 W/m -2,3 C -0,7 C 14,5 km/h (3 Bft) 100 %
29.12.2017 08:20 -0,8 C -0,8 C -0,7 C 89 % 1011,6 hPa 0,0 l/m 1,6 km/h (1 Bft) S-SW 202 0 min 0,000 mm 0 W/m -2,4 C -0,8 C 9,7 km/h (2 Bft) 100 %
29.12.2017 08:30 -1,1 C -1,1 C -0,8 C 89 % 1011,7 hPa 0,0 l/m 4,8 km/h (1 Bft) S-SO 157 0 min 0,000 mm 5 W/m -2,7 C -1,1 C 11,3 km/h (2 Bft) 94 %
29.12.2017 08:40 -1,1 C -1,1 C -1,1 C 89 % 1011,6 hPa 0,0 l/m 4,8 km/h (1 Bft) S 180 0 min 0,000 mm 11 W/m -2,7 C -1,1 C 11,3 km/h (2 Bft) 91 %
29.12.2017 08:50 -1,1 C -1,1 C -1,1 C 89 % 1011,6 hPa 0,0 l/m 4,8 km/h (1 Bft) S 180 0 min 0,000 mm 25 W/m -2,7 C -1,1 C 11,3 km/h (2 Bft) 97 %
29.12.2017 09:00 -1,2 C -1,2 C -1,1 C 89 % 1011,8 hPa 0,0 l/m 4,8 km/h (1 Bft) S-SW 202 0 min 0,000 mm 25 W/m -2,8 C -1,2 C 11,3 km/h (2 Bft) 98 %
29.12.2017 09:10 -1,3 C -1,3 C -1,2 C 89 % 1011,9 hPa 0,0 l/m 4,8 km/h (1 Bft) S-SW 202 0 min 0,000 mm 32 W/m -2,9 C -1,3 C 11,3 km/h (2 Bft) 97 %
29.12.2017 09:20 -1,2 C -1,3 C -1,2 C 89 % 1011,9 hPa 0,0 l/m 4,8 km/h (1 Bft) S 180 0 min 0,000 mm 77 W/m -2,8 C -1,2 C 14,5 km/h (3 Bft) 97 %
29.12.2017 09:30 -0,9 C -1,2 C -0,9 C 88 % 1011,9 hPa 0,0 l/m 4,8 km/h (1 Bft) S 180 0 min 0,000 mm 93 W/m -2,6 C -0,9 C 16,1 km/h (3 Bft) 98 %
29.12.2017 09:40 -0,8 C -0,9 C -0,8 C 87 % 1012,0 hPa 0,0 l/m 4,8 km/h (1 Bft) S 180 0 min 0,000 mm 120 W/m -2,7 C -0,8 C 14,5 km/h (3 Bft) 97 %
29.12.2017 09:50 -0,7 C -0,8 C -0,7 C 87 % 1012,0 hPa 0,0 l/m 6,4 km/h (2 Bft) S 180 0 min 0,000 mm 113 W/m -2,6 C -0,7 C 17,7 km/h (3 Bft) 98 %
29.12.2017 10:00 -0,7 C -0,7 C -0,7 C 86 % 1012,0 hPa 0,0 l/m 8,0 km/h (2 Bft) S-SW 202 0 min 0,025 mm 58 W/m -2,7 C -2,4 C 17,7 km/h (3 Bft) 97 %
29.12.2017 10:10 -0,6 C -0,7 C -0,6 C 87 % 1012,0 hPa 0,0 l/m 6,4 km/h (2 Bft) S-SW 202 10 min 0,000 mm 204 W/m -2,5 C -0,6 C 16,1 km/h (3 Bft) 98 %
29.12.2017 10:20 0,2 C -0,6 C 0,2 C 86 % 1012,0 hPa 0,0 l/m 9,7 km/h (2 Bft) S-SW 202 10 min 0,000 mm 258 W/m -1,9 C -3,0 C 19,3 km/h (3 Bft) 97 %
29.12.2017 10:30 0,4 C 0,2 C 0,4 C 85 % 1012,1 hPa 0,0 l/m 11,3 km/h (2 Bft) S-SW 202 10 min 0,000 mm 236 W/m -1,8 C -4,0 C 19,3 km/h (3 Bft) 98 %
29.12.2017 10:40 0,8 C 0,4 C 0,8 C 83 % 1012,0 hPa 0,0 l/m 11,3 km/h (2 Bft) S-SW 202 10 min 0,000 mm 236 W/m -1,8 C -3,6 C 19,3 km/h (3 Bft) 100 %
29.12.2017 10:50 1,3 C 0,8 C 1,3 C 82 % 1011,7 hPa 0,0 l/m 9,7 km/h (2 Bft) S-SW 202 10 min 0,000 mm 250 W/m -1,4 C -1,8 C 20,9 km/h (4 Bft) 100 %
29.12.2017 11:00 1,4 C 0,8 C 1,4 C 81 % 1011,6 hPa 0,0 l/m 10,0 km/h (2 Bft) S-SW 211 10 min 0,077 mm 229 W/m -1,5 C -1,9 C 14,5 km/h (3 Bft) 100 %
29.12.2017 11:10 1,4 C 1,4 C 1,6 C 80 % 1011,3 hPa 0,0 l/m 8,2 km/h (2 Bft) S-SW 198 10 min 0,000 mm 253 W/m -1,7 C -0,4 C 17,7 km/h (3 Bft) 100 %
29.12.2017 11:20 1,4 C 1,3 C 1,4 C 81 % 1010,9 hPa 0,0 l/m 5,2 km/h (1 Bft) S-SW 207 10 min 0,000 mm 264 W/m -1,5 C 1,4 C 16,1 km/h (3 Bft) 100 %
29.12.2017 11:30 1,5 C 1,4 C 1,5 C 80 % 1010,8 hPa 0,0 l/m 6,8 km/h (2 Bft) S 178 10 min 0,000 mm 272 W/m -1,6 C 1,1 C 16,1 km/h (3 Bft) 100 %
29.12.2017 11:40 1,4 C 1,4 C 1,5 C 81 % 1010,7 hPa 0,0 l/m 7,5 km/h (2 Bft) S-SW 192 10 min 0,000 mm 304 W/m -1,5 C 0,3 C 17,7 km/h (3 Bft) 100 %
29.12.2017 11:50 1,5 C 1,4 C 1,5 C 81 % 1010,6 hPa 0,0 l/m 7,3 km/h (2 Bft) S 189 10 min 0,000 mm 204 W/m -1,4 C 0,6 C 17,7 km/h (3 Bft) 100 %
29.12.2017 12:00 1,7 C 1,5 C 1,7 C 82 % 1010,5 hPa 0,0 l/m 1,7 km/h (1 Bft) SW 216 10 min 0,000 mm 200 W/m -1,0 C 1,7 C 9,7 km/h (2 Bft) 100 %
29.12.2017 12:10 1,9 C 1,7 C 1,9 C 81 % 1010,3 hPa 0,0 l/m 5,8 km/h (2 Bft) S-SW 207 10 min 0,101 mm 283 W/m -1,0 C 1,9 C 14,5 km/h (3 Bft) 100 %
29.12.2017 12:20 2,2 C 1,9 C 2,2 C 79 % 1010,1 hPa 0,0 l/m 6,9 km/h (2 Bft) S-SW 196 10 min 0,000 mm 190 W/m -1,1 C 1,7 C 12,9 km/h (3 Bft) 100 %
29.12.2017 12:30 2,3 C 2,2 C 2,3 C 80 % 1010,2 hPa 0,0 l/m 4,8 km/h (1 Bft) S-SW 212 10 min 0,000 mm 167 W/m -0,8 C 2,3 C 12,9 km/h (3 Bft) 100 %
29.12.2017 12:40 2,4 C 2,3 C 2,4 C 79 % 1010,2 hPa 0,0 l/m 8,8 km/h (2 Bft) S-SW 205 10 min 0,000 mm 276 W/m -0,9 C 0,2 C 17,7 km/h (3 Bft) 100 %
29.12.2017 12:50 2,6 C 2,4 C 2,6 C 78 % 1010,1 hPa 0,0 l/m 8,8 km/h (2 Bft) S-SO 159 10 min 0,000 mm 302 W/m -0,8 C 0,4 C 19,3 km/h (3 Bft) 100 %
29.12.2017 13:00 2,8 C 2,6 C 2,8 C 78 % 1009,7 hPa 0,0 l/m 9,0 km/h (2 Bft) S-SW 196 10 min 0,102 mm 292 W/m -0,6 C 0,4 C 20,9 km/h (4 Bft) 100 %
29.12.2017 13:10 2,7 C 2,7 C 2,8 C 77 % 1009,7 hPa 0,0 l/m 9,6 km/h (2 Bft) S 191 10 min 0,000 mm 204 W/m -0,9 C -0,2 C 22,5 km/h (4 Bft) 100 %
29.12.2017 13:20 2,4 C 2,4 C 2,7 C 77 % 1009,6 hPa 0,0 l/m 6,0 km/h (2 Bft) S-SW 197 10 min 0,000 mm 239 W/m -1,2 C 2,4 C 17,7 km/h (3 Bft) 100 %
29.12.2017 13:30 2,5 C 2,4 C 2,5 C 78 % 1009,3 hPa 0,0 l/m 6,4 km/h (2 Bft) S 189 0 min 0,000 mm 88 W/m -0,9 C 2,5 C 17,7 km/h (3 Bft) 100 %
29.12.2017 13:40 2,6 C 2,4 C 2,6 C 78 % 1009,3 hPa 0,0 l/m 6,9 km/h (2 Bft) S-SW 213 0 min 0,000 mm 97 W/m -0,8 C 2,1 C 17,7 km/h (3 Bft) 100 %
29.12.2017 13:50 2,4 C 2,4 C 2,6 C 77 % 1009,1 hPa 0,0 l/m 8,6 km/h (2 Bft) S-SW 199 0 min 0,000 mm 77 W/m -1,2 C 0,3 C 17,7 km/h (3 Bft) 100 %
29.12.2017 14:00 2,3 C 2,3 C 2,4 C 76 % 1008,8 hPa 0,0 l/m 6,6 km/h (2 Bft) S 188 0 min 0,076 mm 91 W/m -1,5 C 2,1 C 20,9 km/h (4 Bft) 100 %
29.12.2017 14:10 2,1 C 2,1 C 2,3 C 75 % 1008,5 hPa 0,0 l/m 7,5 km/h (2 Bft) S-SW 209 0 min 0,000 mm 107 W/m -1,9 C 1,0 C 19,3 km/h (3 Bft) 100 %
29.12.2017 14:20 2,1 C 2,1 C 2,2 C 76 % 1008,3 hPa 0,0 l/m 9,6 km/h (2 Bft) S-SO 165 0 min 0,000 mm 88 W/m -1,7 C -0,8 C 22,5 km/h (4 Bft) 100 %
29.12.2017 14:30 2,0 C 2,0 C 2,1 C 76 % 1008,2 hPa 0,0 l/m 7,5 km/h (2 Bft) S-SW 203 0 min 0,000 mm 74 W/m -1,8 C 0,9 C 22,5 km/h (4 Bft) 100 %
29.12.2017 14:40 1,9 C 1,9 C 2,0 C 78 % 1008,2 hPa 0,0 l/m 6,8 km/h (2 Bft) S-SW 194 0 min 0,000 mm 63 W/m -1,5 C 1,5 C 19,3 km/h (3 Bft) 100 %
29.12.2017 14:50 1,9 C 1,9 C 1,9 C 78 % 1008,2 hPa 0,0 l/m 5,7 km/h (1 Bft) S-SO 159 0 min 0,000 mm 53 W/m -1,5 C 1,9 C 19,3 km/h (3 Bft) 100 %
29.12.2017 15:00 1,8 C 1,8 C 1,9 C 77 % 1007,9 hPa 0,0 l/m 6,3 km/h (2 Bft) S 171 0 min 0,051 mm 37 W/m -1,8 C 1,8 C 19,3 km/h (3 Bft) 100 %
29.12.2017 15:10 1,8 C 1,8 C 1,9 C 77 % 1007,8 hPa 0,0 l/m 6,8 km/h (2 Bft) S 182 0 min 0,000 mm 42 W/m -1,8 C 1,4 C 19,3 km/h (3 Bft) 91 %
29.12.2017 15:20 1,9 C 1,8 C 1,9 C 76 % 1007,6 hPa 0,0 l/m 7,0 km/h (2 Bft) S-SO 156 0 min 0,000 mm 40 W/m -1,9 C 1,3 C 20,9 km/h (4 Bft) 100 %
29.12.2017 15:30 1,8 C 1,8 C 1,9 C 76 % 1007,3 hPa 0,0 l/m 8,6 km/h (2 Bft) S-SW 199 0 min 0,000 mm 28 W/m -2,0 C -0,3 C 19,3 km/h (3 Bft) 100 %
29.12.2017 15:40 1,8 C 1,8 C 1,8 C 76 % 1007,2 hPa 0,0 l/m 7,4 km/h (2 Bft) S 185 0 min 0,000 mm 19 W/m -2,0 C 0,8 C 22,5 km/h (4 Bft) 100 %
29.12.2017 15:50 1,9 C 1,8 C 1,9 C 76 % 1007,2 hPa 0,0 l/m 7,9 km/h (2 Bft) S-SW 194 0 min 0,000 mm 16 W/m -1,9 C 0,4 C 19,3 km/h (3 Bft) 100 %
29.12.2017 16:00 1,9 C 1,9 C 1,9 C 75 % 1006,8 hPa 0,0 l/m 9,9 km/h (2 Bft) S-SW 192 0 min 0,000 mm 12 W/m -2,1 C -1,3 C 24,1 km/h (4 Bft) 92 %
29.12.2017 16:10 1,9 C 1,9 C 1,9 C 75 % 1006,5 hPa 0,0 l/m 9,3 km/h (2 Bft) S 186 0 min 0,025 mm 7 W/m -2,1 C -0,8 C 20,9 km/h (4 Bft) 100 %
29.12.2017 16:20 1,9 C 1,9 C 2,0 C 74 % 1006,2 hPa 0,0 l/m 9,8 km/h (2 Bft) S 180 0 min 0,000 mm 0 W/m -2,2 C -1,2 C 22,5 km/h (4 Bft) 100 %
29.12.2017 16:30 1,9 C 1,9 C 2,0 C 74 % 1006,0 hPa 0,0 l/m 8,5 km/h (2 Bft) S 169 0 min 0,000 mm 0 W/m -2,2 C -0,1 C 24,1 km/h (4 Bft) 100 %
29.12.2017 16:40 1,9 C 1,8 C 1,9 C 73 % 1005,9 hPa 0,0 l/m 5,8 km/h (2 Bft) S 175 0 min 0,000 mm 0 W/m -2,4 C 1,9 C 16,1 km/h (3 Bft) 100 %
29.12.2017 16:50 1,8 C 1,8 C 1,9 C 74 % 1005,7 hPa 0,0 l/m 6,1 km/h (2 Bft) SO 144 0 min 0,000 mm 0 W/m -2,3 C 1,8 C 19,3 km/h (3 Bft) 100 %
29.12.2017 17:00 1,9 C 1,8 C 1,9 C 73 % 1005,8 hPa 0,0 l/m 5,8 km/h (2 Bft) S-SO 157 0 min 0,000 mm 0 W/m -2,4 C 1,9 C 17,7 km/h (3 Bft) 100 %
29.12.2017 17:10 2,0 C 1,8 C 2,0 C 72 % 1005,6 hPa 0,0 l/m 6,9 km/h (2 Bft) SO 135 0 min 0,025 mm 0 W/m -2,5 C 1,5 C 19,3 km/h (3 Bft) 100 %
29.12.2017 17:20 2,0 C 2,0 C 2,0 C 72 % 1005,4 hPa 0,0 l/m 4,2 km/h (1 Bft) S 171 0 min 0,001 mm 0 W/m -2,5 C 2,0 C 17,7 km/h (3 Bft) 100 %
29.12.2017 17:30 2,0 C 1,9 C 2,0 C 72 % 1005,1 hPa 0,0 l/m 5,8 km/h (2 Bft) S-SO 168 0 min 0,000 mm 0 W/m -2,5 C 2,0 C 16,1 km/h (3 Bft) 100 %
29.12.2017 17:40 1,9 C 1,9 C 2,0 C 74 % 1004,9 hPa 0,0 l/m 11,6 km/h (2 Bft) S-SW 200 0 min 0,000 mm 0 W/m -2,2 C -2,5 C 32,2 km/h (5 Bft) 91 %
29.12.2017 17:50 1,5 C 1,5 C 1,9 C 78 % 1004,7 hPa 0,0 l/m 14,5 km/h (3 Bft) S-SO 147 0 min 0,000 mm 0 W/m -1,9 C -4,9 C 37,0 km/h (5 Bft) 100 %
29.12.2017 18:00 0,8 C 0,8 C 1,5 C 86 % 1004,7 hPa 0,0 l/m 14,9 km/h (3 Bft) S-SO 164 0 min 0,025 mm 0 W/m -1,3 C -6,0 C 30,6 km/h (5 Bft) 100 %
29.12.2017 18:10 0,1 C 0,1 C 0,8 C 90 % 1004,3 hPa 0,0 l/m 9,7 km/h (2 Bft) SO 136 0 min 0,000 mm 0 W/m -1,3 C -3,1 C 22,5 km/h (4 Bft) 99 %
29.12.2017 18:20 -0,2 C -0,2 C 0,1 C 90 % 1004,1 hPa 0,0 l/m 6,5 km/h (2 Bft) S-SO 150 0 min 0,000 mm 0 W/m -1,6 C -0,3 C 17,7 km/h (3 Bft) 100 %
29.12.2017 18:30 -0,3 C -0,3 C -0,2 C 90 % 1004,0 hPa 0,0 l/m 5,9 km/h (2 Bft) S 175 0 min 0,000 mm 0 W/m -1,7 C -0,3 C 17,7 km/h (3 Bft) 100 %
29.12.2017 18:40 -0,4 C -0,4 C -0,3 C 90 % 1003,7 hPa 0,2 l/m 9,9 km/h (2 Bft) S-SO 156 0 min 0,000 mm 0 W/m -1,8 C -3,8 C 20,9 km/h (4 Bft) 100 %
29.12.2017 18:50 -0,4 C -0,4 C -0,4 C 90 % 1003,7 hPa 0,2 l/m 6,7 km/h (2 Bft) S 169 0 min 0,000 mm 0 W/m -1,8 C -0,7 C 17,7 km/h (3 Bft) 100 %
29.12.2017 19:00 -0,5 C -0,5 C -0,4 C 90 % 1003,4 hPa 0,4 l/m 3,5 km/h (1 Bft) S-SO 166 0 min 0,000 mm 0 W/m -1,9 C -0,5 C 14,5 km/h (3 Bft) 100 %
29.12.2017 19:10 -0,5 C -0,5 C -0,4 C 90 % 1003,1 hPa 0,0 l/m 5,5 km/h (1 Bft) SO 134 0 min 0,000 mm 0 W/m -1,9 C -0,5 C 14,5 km/h (3 Bft) 99 %
29.12.2017 19:20 -0,5 C -0,5 C -0,4 C 90 % 1003,0 hPa 0,0 l/m 7,2 km/h (2 Bft) S-SO 150 0 min 0,000 mm 0 W/m -1,9 C -1,3 C 16,1 km/h (3 Bft) 100 %
29.12.2017 19:30 -0,5 C -0,5 C -0,4 C 90 % 1003,0 hPa 0,0 l/m 3,3 km/h (1 Bft) S 169 0 min 0,000 mm 0 W/m -1,9 C -0,5 C 12,9 km/h (3 Bft) 100 %
29.12.2017 19:40 -0,4 C -0,5 C -0,4 C 90 % 1002,9 hPa 0,0 l/m 3,1 km/h (1 Bft) SO 142 0 min 0,000 mm 0 W/m -1,8 C -0,4 C 11,3 km/h (2 Bft) 100 %
29.12.2017 19:50 -0,4 C -0,5 C -0,4 C 90 % 1002,7 hPa 0,0 l/m 5,1 km/h (1 Bft) S-SO 148 0 min 0,000 mm 0 W/m -1,8 C -0,4 C 12,9 km/h (3 Bft) 91 %
29.12.2017 20:00 -0,4 C -0,5 C -0,4 C 90 % 1002,6 hPa 0,0 l/m 6,1 km/h (2 Bft) SO 142 0 min 0,000 mm 0 W/m -1,8 C -0,4 C 16,1 km/h (3 Bft) 100 %
29.12.2017 20:10 -0,4 C -0,4 C -0,4 C 90 % 1002,5 hPa 0,0 l/m 6,2 km/h (2 Bft) SO 128 0 min 0,000 mm 0 W/m -1,8 C -0,4 C 16,1 km/h (3 Bft) 100 %
29.12.2017 20:20 -0,4 C -0,4 C -0,4 C 91 % 1002,4 hPa 0,0 l/m 5,7 km/h (1 Bft) S 169 0 min 0,000 mm 0 W/m -1,7 C -0,4 C 16,1 km/h (3 Bft) 100 %
29.12.2017 20:30 -0,4 C -0,4 C -0,4 C 91 % 1002,5 hPa 0,0 l/m 3,7 km/h (1 Bft) S-SO 154 0 min 0,000 mm 0 W/m -1,7 C -0,4 C 9,7 km/h (2 Bft) 100 %
29.12.2017 20:40 -0,4 C -0,4 C -0,4 C 91 % 1002,5 hPa 0,2 l/m 3,3 km/h (1 Bft) S 190 0 min 0,000 mm 0 W/m -1,7 C -0,4 C 9,7 km/h (2 Bft) 100 %
29.12.2017 20:50 -0,4 C -0,4 C -0,4 C 91 % 1002,6 hPa 0,4 l/m 4,9 km/h (1 Bft) S-SO 167 0 min 0,000 mm 0 W/m -1,7 C -0,4 C 9,7 km/h (2 Bft) 100 %
29.12.2017 21:00 -0,3 C -0,4 C -0,3 C 91 % 1002,7 hPa 0,2 l/m 5,0 km/h (1 Bft) S-SO 158 0 min 0,000 mm 0 W/m -1,6 C -0,3 C 14,5 km/h (3 Bft) 100 %
29.12.2017 21:10 -0,3 C -0,3 C -0,3 C 91 % 1002,8 hPa 0,0 l/m 4,8 km/h (1 Bft) S 180 0 min 0,000 mm 0 W/m -1,6 C -0,3 C 11,3 km/h (2 Bft) 98 %
29.12.2017 21:20 -0,2 C -0,3 C -0,2 C 91 % 1003,0 hPa 0,0 l/m 6,4 km/h (2 Bft) S 180 0 min 0,000 mm 0 W/m -1,5 C -0,2 C 16,1 km/h (3 Bft) 96 %
29.12.2017 21:30 -0,2 C -0,3 C -0,2 C 91 % 1003,0 hPa 0,0 l/m 6,4 km/h (2 Bft) S 180 0 min 0,000 mm 0 W/m -1,5 C -0,2 C 14,5 km/h (3 Bft) 98 %
29.12.2017 21:40 -0,2 C -0,2 C -0,2 C 91 % 1003,1 hPa 0,4 l/m 4,8 km/h (1 Bft) S-SW 202 0 min 0,000 mm 0 W/m -1,5 C -0,2 C 11,3 km/h (2 Bft) 98 %
29.12.2017 21:50 -0,2 C -0,2 C -0,2 C 91 % 1003,1 hPa 0,4 l/m 6,4 km/h (2 Bft) S-SW 202 0 min 0,000 mm 0 W/m -1,5 C -0,2 C 14,5 km/h (3 Bft) 97 %
29.12.2017 22:00 -0,1 C -0,2 C -0,1 C 91 % 1003,2 hPa 0,4 l/m 4,8 km/h (1 Bft) S-SW 202 0 min 0,000 mm 0 W/m -1,4 C -0,1 C 14,5 km/h (3 Bft) 98 %
29.12.2017 22:10 -0,1 C -0,1 C -0,1 C 91 % 1003,2 hPa 0,2 l/m 3,2 km/h (1 Bft) S 180 0 min 0,000 mm 0 W/m -1,4 C -0,1 C 8,0 km/h (2 Bft) 97 %
29.12.2017 22:20 -0,1 C -0,1 C -0,1 C 91 % 1003,2 hPa 0,2 l/m 3,2 km/h (1 Bft) S 180 0 min 0,000 mm 0 W/m -1,4 C -0,1 C 8,0 km/h (2 Bft) 98 %
29.12.2017 22:30 -0,1 C -0,1 C -0,1 C 91 % 1003,4 hPa 0,2 l/m 3,2 km/h (1 Bft) S 180 0 min 0,000 mm 0 W/m -1,4 C -0,1 C 6,4 km/h (2 Bft) 97 %
29.12.2017 22:40 0,0 C -0,1 C 0,0 C 91 % 1003,6 hPa 0,0 l/m 1,6 km/h (1 Bft) S-SO 157 0 min 0,000 mm 0 W/m -1,3 C 0,0 C 8,0 km/h (2 Bft) 97 %
29.12.2017 22:50 0,0 C -0,1 C 0,0 C 91 % 1003,8 hPa 0,2 l/m 4,8 km/h (1 Bft) S-SO 157 0 min 0,000 mm 0 W/m -1,3 C 0,0 C 8,0 km/h (2 Bft) 98 %
29.12.2017 23:00 0,1 C 0,0 C 0,1 C 91 % 1003,9 hPa 0,2 l/m 4,8 km/h (1 Bft) S 180 0 min 0,000 mm 0 W/m -1,2 C 0,1 C 11,3 km/h (2 Bft) 97 %
29.12.2017 23:10 0,2 C 0,1 C 0,2 C 91 % 1004,3 hPa 0,2 l/m 6,4 km/h (2 Bft) S-SW 202 0 min 0,000 mm 0 W/m -1,1 C 0,2 C 16,1 km/h (3 Bft) 98 %
29.12.2017 23:20 0,3 C 0,2 C 0,3 C 91 % 1004,5 hPa 0,0 l/m 6,4 km/h (2 Bft) SW 225 0 min 0,000 mm 0 W/m -1,0 C 0,3 C 17,7 km/h (3 Bft) 97 %
29.12.2017 23:30 0,6 C 0,3 C 0,6 C 91 % 1004,9 hPa 0,4 l/m 8,0 km/h (2 Bft) W-SW 247 0 min 0,000 mm 0 W/m -0,7 C -1,0 C 24,1 km/h (4 Bft) 98 %
29.12.2017 23:40 0,9 C 0,6 C 1,0 C 91 % 1005,4 hPa 0,4 l/m 11,3 km/h (2 Bft) W-SW 247 0 min 0,000 mm 0 W/m -0,4 C -3,5 C 29,0 km/h (5 Bft) 97 %
29.12.2017 23:50 1,2 C 1,0 C 1,2 C 91 % 1005,4 hPa 0,4 l/m 12,9 km/h (3 Bft) W-SW 247 0 min 0,000 mm 0 W/m -0,1 C -4,2 C 29,0 km/h (5 Bft) 97 %
_ Min-Zeit 03:40 03:40 02:40 17:10 20:20 - 01:50 - - - - - 09:10 18:00 22:30 05:50
Minimum _ -1,3 C -1,3 C -1,2 C 72 % 1002,4 hPa - 0,0 km/h (0 Bft) - - - - - -2,9 C -6,0 C 6,4 km/h (2 Bft) 89 %
_ Max-Zeit 13:00 13:10 13:00 02:00 10:30 19:00 18:00 - - 10:10 13:00 11:40 23:50 13:30 17:50 00:00
Maximum _ 2,8 C 2,7 C 2,8 C 91 % 1012,1 hPa 0,4 l/m 14,9 km/h
S-SO (3 Bft)
- - 10 min 0,102 mm 304 W/m -0,1 C 2,5 C 37,0 km/h
S (5 Bft)
100 %
Durchschnitt _ 0,2 C 0,2 C 0,3 C 86 % 1008,3 hPa #5,2 l/m 6,2 km/h (2 Bft) S-SW - #3:20 h #0,508 mm 135 W/m -1,8 C -0,6 C 15,8 km/h (3 Bft) 99 %
PRIVATE WETTERSTATION BILLIGHEIM-ALLFELD - www.neckar-odenwald-wetter.de - Holger Sonntag